Terminal Aerodrome Forecast
Issued by NWS

Home | Current Version | Previous Version | Text Only | Print | Product List | Glossary On
Versions: 1 2 3 4 5 6 7 8 9 10 11 12 13 14 15 16 17 18 19 20 21 22 23 24 25 26 27 28 29 30 31 32
000
FTUS41 KBTV 180108 AAA
TAFPBG
TAF AMD
KPBG 180108Z 1801/1824 VRB03KT P6SM VCSH SCT025 OVC040
      TEMPO 1801/1804 1SM BR BKN003
     FM180400 31003KT 6SM -SHSN BR OVC035
     FM181200 33007KT P6SM VCSH OVC035=

USA.gov is the U.S. government's official web portal to all federal, state and local government web resources and services.